Burton, Texas
Current Conditions -  °F | °C
As of 10:15 AM on Tuesday 21 Oct 2014 (Local Time) from K11R Reporting Station
Clear Clear  
Wind Chill: 22°   Ceiling: Unl
Heat Index: 22°   Visibility: 10mi
Dew Point: 14°   Wind: 5mph
Humidity: 60%   Direction: 70°ENE
Pressure: 30.1"   Gusts: NA
Location:  30.18°N, 96.6°W
Report Text: K11R 211515Z AUTO 07004KT 10SM CLR 22/14 A3010 RMK AO2 T02170135
Loading
Personal Weather Stations






























Interactive Weather Map
Tropical Storm Tracking
New forecast layout! Learn more

10-Day Weather Forecast

Advertisements
Track Severe Weather on mobile